San Angelo, TX

4:33 AM CST on February 23, 2017 (GMT -0600)
Goodfellow AFB Rec Camp | | Change Station
Active Advisory: Fire Weather Warning

Elev 1873 ft 31.37 °N, 100.49 °W | Updated 1 minute ago

Clear
Clear
50.7 °F
Feels Like 50.7 °F
N
0.0
Wind Variable Wind from WSW

Today
High -- | Low -- °F
--% Chance of Precip.
Yesterday
High -- | Low -- °F
Precip. -- in
Pressure 29.65 in
Visibility 10.0 miles
Clouds Clear
Dew Point 38 °F
Humidity 63%
Rainfall 0.00 in
Snow Depth Not available.
7:15 AM 6:35 PM
Waning Crescent, 11% visible
METAR KSJT 230951Z 20007KT 10SM CLR 08/04 A2970 RMK AO2 SLP041 T00830039
Pressure 29.65 in
Visibility 10.0 miles
Clouds Clear
Dew Point 38 °F
Humidity 63%
Rainfall 0.00 in
Snow Depth Not available.
7:15 AM 6:35 PM
Waning Crescent, 11% visible
METAR KSJT 230951Z 20007KT 10SM CLR 08/04 A2970 RMK AO2 SLP041 T00830039

Get Your Daily Forecast Email!

Thanks for signing up!

Be on the lookout for a verification email in your inbox.

You'll start receiving the daily forecast at 8 AM.

×

10-Day Weather Forecast

Almanac

Astronomy

Feb. 23, 2017 Rise Set
Actual Time
Civil Twilight
Nautical Twilight
Astronomical Twilight
Moon
Length of Visible Light
Length of Day
Tomorrow will be .
, % of the Moon is Illuminated

Today's Extremes

State Highs State Lows

Community

WunderPhotos

Upload Photos

1,962,540 photos uploaded!

WunderBlog® & News

Nearby

Air Quality

  Air Quality AQ Index Pollutant
Not available.

Snow Depth

Station Depth Elevation

Earthquake Activity

City Distance Mag. Time & Date
Minimum magnitude displayed is 2.5.

Coastal Water Temperatures

Place Temperature

Stations

Nearby Weather Stations

Station Location Temp. Windchill Dew Point Humidity Wind Precip. Elev Updated Type
                   

Watches & Warnings

Fire Weather Warning
Issued: 3:02 AM CST Feb. 23, 2017 – National Weather Service

... Red flag warning remains in effect from 11 am this morning to
8 PM CST this evening for very warm temperatures... low relative
humidities... high fire danger and gusty winds...

The National Weather Service in San Angelo has issued a red flag
warning, which is in effect from 11 am to 8 PM CST Thursday.

* Wind... southwest winds 20 to 25 mph with gusts around 30 mph.

* Humidity... 10 to 15 percent.

* Fuels... dry fuels and afternoon temperatures near 90 degrees.

* Impacts... any fires that develop will likely spread rapidly.
Outdoor burning is highly discouraged.

Precautionary/preparedness actions...

A red flag warning means that critical fire weather conditions
are either occurring now... .or will shortly. A combination of
strong winds... low relative humidity... and warm temperatures can
contribute to extreme fire behavior.